sensor_id;sensor_type;location;lat;lon;timestamp;P1;durP1;ratioP1;P2;durP2;ratioP2
7657;SDS011;8462;53.156;8.220;2023-02-01T00:02:12;16.53;;;3.53;;
7657;SDS011;8462;53.156;8.220;2023-02-01T00:04:39;17.73;;;3.50;;
7657;SDS011;8462;53.156;8.220;2023-02-01T00:07:05;17.60;;;3.53;;
7657;SDS011;8462;53.156;8.220;2023-02-01T00:09:32;12.37;;;3.50;;
7657;SDS011;8462;53.156;8.220;2023-02-01T00:11:59;16.87;;;2.70;;
7657;SDS011;8462;53.156;8.220;2023-02-01T00:14:29;20.20;;;3.97;;
7657;SDS011;8462;53.156;8.220;2023-02-01T00:16:57;15.03;;;3.20;;
7657;SDS011;8462;53.156;8.220;2023-02-01T00:19:24;16.20;;;3.70;;
7657;SDS011;8462;53.156;8.220;2023-02-01T00:21:51;14.67;;;3.70;;
7657;SDS011;8462;53.156;8.220;2023-02-01T00:24:17;15.50;;;3.23;;
7657;SDS011;8462;53.156;8.220;2023-02-01T00:26:45;17.30;;;3.97;;
7657;SDS011;8462;53.156;8.220;2023-02-01T00:29:12;15.03;;;3.53;;
7657;SDS011;8462;53.156;8.220;2023-02-01T00:31:42;10.80;;;2.83;;
7657;SDS011;8462;53.156;8.220;2023-02-01T00:34:10;16.53;;;3.63;;
7657;SDS011;8462;53.156;8.220;2023-02-01T00:36:39;11.73;;;3.23;;
7657;SDS011;8462;53.156;8.220;2023-02-01T00:39:06;12.47;;;4.50;;
7657;SDS011;8462;53.156;8.220;2023-02-01T00:41:33;11.63;;;3.37;;
7657;SDS011;8462;53.156;8.220;2023-02-01T00:44:00;13.13;;;4.10;;
7657;SDS011;8462;53.156;8.220;2023-02-01T00:46:29;15.40;;;3.27;;
7657;SDS011;8462;53.156;8.220;2023-02-01T00:48:58;18.60;;;3.47;;
7657;SDS011;8462;53.156;8.220;2023-02-01T00:51:25;13.97;;;3.50;;
7657;SDS011;8462;53.156;8.220;2023-02-01T00:53:54;15.87;;;3.43;;
7657;SDS011;8462;53.156;8.220;2023-02-01T00:56:21;18.90;;;3.53;;
7657;SDS011;8462;53.156;8.220;2023-02-01T00:58:49;13.37;;;3.10;;
7657;SDS011;8462;53.156;8.220;2023-02-01T01:01:16;14.83;;;2.67;;
7657;SDS011;8462;53.156;8.220;2023-02-01T01:03:46;13.13;;;3.23;;
7657;SDS011;8462;53.156;8.220;2023-02-01T01:06:18;17.80;;;5.20;;
7657;SDS011;8462;53.156;8.220;2023-02-01T01:08:46;11.10;;;3.67;;
7657;SDS011;8462;53.156;8.220;2023-02-01T01:11:14;12.17;;;3.97;;
7657;SDS011;8462;53.156;8.220;2023-02-01T01:13:43;15.93;;;4.17;;
7657;SDS011;8462;53.156;8.220;2023-02-01T01:16:11;14.07;;;3.07;;
7657;SDS011;8462;53.156;8.220;2023-02-01T01:18:38;10.83;;;3.10;;
7657;SDS011;8462;53.156;8.220;2023-02-01T01:21:06;11.47;;;2.57;;
7657;SDS011;8462;53.156;8.220;2023-02-01T01:23:35;17.00;;;3.50;;
7657;SDS011;8462;53.156;8.220;2023-02-01T01:26:04;20.47;;;3.70;;
7657;SDS011;8462;53.156;8.220;2023-02-01T01:28:32;13.97;;;3.33;;
7657;SDS011;8462;53.156;8.220;2023-02-01T01:30:59;15.10;;;3.53;;
7657;SDS011;8462;53.156;8.220;2023-02-01T01:33:26;18.73;;;4.07;;
7657;SDS011;8462;53.156;8.220;2023-02-01T01:35:53;16.40;;;3.70;;
7657;SDS011;8462;53.156;8.220;2023-02-01T01:38:20;11.27;;;3.27;;
7657;SDS011;8462;53.156;8.220;2023-02-01T01:40:48;12.30;;;2.43;;
7657;SDS011;8462;53.156;8.220;2023-02-01T01:43:16;10.23;;;2.57;;
7657;SDS011;8462;53.156;8.220;2023-02-01T01:45:46;12.33;;;3.37;;
7657;SDS011;8462;53.156;8.220;2023-02-01T01:48:13;19.80;;;3.30;;
7657;SDS011;8462;53.156;8.220;2023-02-01T01:50:46;9.13;;;2.50;;
7657;SDS011;8462;53.156;8.220;2023-02-01T01:53:18;12.97;;;3.47;;
7657;SDS011;8462;53.156;8.220;2023-02-01T01:55:49;16.00;;;3.00;;
7657;SDS011;8462;53.156;8.220;2023-02-01T01:58:18;12.60;;;2.73;;
7657;SDS011;8462;53.156;8.220;2023-02-01T02:00:47;17.50;;;3.50;;
7657;SDS011;8462;53.156;8.220;2023-02-01T02:03:15;13.20;;;3.07;;
7657;SDS011;8462;53.156;8.220;2023-02-01T02:05:44;10.87;;;3.73;;
7657;SDS011;8462;53.156;8.220;2023-02-01T02:08:12;17.30;;;3.83;;
7657;SDS011;8462;53.156;8.220;2023-02-01T02:10:39;9.97;;;2.30;;
7657;SDS011;8462;53.156;8.220;2023-02-01T02:13:25;10.07;;;3.27;;
7657;SDS011;8462;53.156;8.220;2023-02-01T02:15:57;14.10;;;3.03;;
7657;SDS011;8462;53.156;8.220;2023-02-01T02:18:32;13.77;;;2.83;;
7657;SDS011;8462;53.156;8.220;2023-02-01T02:21:14;15.33;;;3.03;;
7657;SDS011;8462;53.156;8.220;2023-02-01T02:23:58;17.00;;;3.23;;
7657;SDS011;8462;53.156;8.220;2023-02-01T02:35:43;13.97;;;2.50;;
7657;SDS011;8462;53.156;8.220;2023-02-01T02:38:21;14.13;;;2.77;;
7657;SDS011;8462;53.156;8.220;2023-02-01T02:40:56;12.83;;;3.33;;
7657;SDS011;8462;53.156;8.220;2023-02-01T02:43:31;12.03;;;3.27;;
7657;SDS011;8462;53.156;8.220;2023-02-01T02:46:20;11.60;;;3.10;;
7657;SDS011;8462;53.156;8.220;2023-02-01T02:49:11;13.60;;;3.37;;
7657;SDS011;8462;53.156;8.220;2023-02-01T02:51:43;9.93;;;2.93;;
7657;SDS011;8462;53.156;8.220;2023-02-01T02:54:32;9.37;;;2.10;;
7657;SDS011;8462;53.156;8.220;2023-02-01T02:57:13;14.73;;;3.17;;
7657;SDS011;8462;53.156;8.220;2023-02-01T03:00:03;14.93;;;3.23;;
7657;SDS011;8462;53.156;8.220;2023-02-01T03:02:50;18.57;;;2.80;;
7657;SDS011;8462;53.156;8.220;2023-02-01T03:05:40;11.20;;;3.23;;
7657;SDS011;8462;53.156;8.220;2023-02-01T03:08:12;9.03;;;2.60;;
7657;SDS011;8462;53.156;8.220;2023-02-01T03:10:51;14.50;;;3.37;;
7657;SDS011;8462;53.156;8.220;2023-02-01T03:13:26;16.73;;;3.10;;
7657;SDS011;8462;53.156;8.220;2023-02-01T03:15:59;14.30;;;2.83;;
7657;SDS011;8462;53.156;8.220;2023-02-01T03:18:32;9.20;;;2.63;;
7657;SDS011;8462;53.156;8.220;2023-02-01T03:21:08;9.17;;;2.80;;
7657;SDS011;8462;53.156;8.220;2023-02-01T03:23:39;14.63;;;2.93;;
7657;SDS011;8462;53.156;8.220;2023-02-01T03:26:09;14.00;;;2.53;;
7657;SDS011;8462;53.156;8.220;2023-02-01T03:28:41;6.97;;;2.57;;
7657;SDS011;8462;53.156;8.220;2023-02-01T03:31:10;12.57;;;2.53;;
7657;SDS011;8462;53.156;8.220;2023-02-01T03:33:39;11.80;;;2.83;;
7657;SDS011;8462;53.156;8.220;2023-02-01T03:36:15;15.97;;;3.20;;
7657;SDS011;8462;53.156;8.220;2023-02-01T03:38:49;10.93;;;2.43;;
7657;SDS011;8462;53.156;8.220;2023-02-01T03:41:23;13.67;;;3.00;;
7657;SDS011;8462;53.156;8.220;2023-02-01T03:43:54;12.90;;;3.47;;
7657;SDS011;8462;53.156;8.220;2023-02-01T03:46:27;9.47;;;2.33;;
7657;SDS011;8462;53.156;8.220;2023-02-01T03:49:00;10.40;;;2.60;;
7657;SDS011;8462;53.156;8.220;2023-02-01T03:51:31;11.60;;;2.70;;
7657;SDS011;8462;53.156;8.220;2023-02-01T03:54:01;11.80;;;2.33;;
7657;SDS011;8462;53.156;8.220;2023-02-01T03:56:30;10.27;;;2.63;;
7657;SDS011;8462;53.156;8.220;2023-02-01T03:59:02;12.17;;;2.63;;
7657;SDS011;8462;53.156;8.220;2023-02-01T04:01:33;12.40;;;2.60;;
7657;SDS011;8462;53.156;8.220;2023-02-01T04:04:00;8.03;;;2.47;;
7657;SDS011;8462;53.156;8.220;2023-02-01T04:06:27;11.00;;;3.10;;
7657;SDS011;8462;53.156;8.220;2023-02-01T04:09:00;13.50;;;2.90;;
7657;SDS011;8462;53.156;8.220;2023-02-01T04:11:27;9.10;;;2.60;;
7657;SDS011;8462;53.156;8.220;2023-02-01T04:13:54;10.73;;;2.70;;
7657;SDS011;8462;53.156;8.220;2023-02-01T04:16:21;14.87;;;2.90;;
7657;SDS011;8462;53.156;8.220;2023-02-01T04:18:48;9.90;;;3.27;;
7657;SDS011;8462;53.156;8.220;2023-02-01T04:21:15;14.00;;;2.93;;
7657;SDS011;8462;53.156;8.220;2023-02-01T04:23:42;8.47;;;2.40;;
7657;SDS011;8462;53.156;8.220;2023-02-01T04:26:10;14.43;;;3.53;;
7657;SDS011;8462;53.156;8.220;2023-02-01T04:28:37;5.97;;;2.30;;
7657;SDS011;8462;53.156;8.220;2023-02-01T04:31:04;14.07;;;3.43;;
7657;SDS011;8462;53.156;8.220;2023-02-01T04:33:30;15.83;;;3.37;;
7657;SDS011;8462;53.156;8.220;2023-02-01T04:35:57;18.90;;;3.30;;
7657;SDS011;8462;53.156;8.220;2023-02-01T04:38:24;12.50;;;2.93;;
7657;SDS011;8462;53.156;8.220;2023-02-01T04:40:51;13.50;;;3.67;;
7657;SDS011;8462;53.156;8.220;2023-02-01T04:43:20;20.90;;;3.47;;
7657;SDS011;8462;53.156;8.220;2023-02-01T04:45:47;13.80;;;3.50;;
7657;SDS011;8462;53.156;8.220;2023-02-01T04:48:14;18.23;;;4.33;;
7657;SDS011;8462;53.156;8.220;2023-02-01T04:50:42;9.30;;;3.50;;
7657;SDS011;8462;53.156;8.220;2023-02-01T04:53:12;16.73;;;3.37;;
7657;SDS011;8462;53.156;8.220;2023-02-01T04:55:40;21.60;;;4.47;;
7657;SDS011;8462;53.156;8.220;2023-02-01T04:58:07;14.17;;;3.80;;
7657;SDS011;8462;53.156;8.220;2023-02-01T05:00:35;10.30;;;3.23;;
7657;SDS011;8462;53.156;8.220;2023-02-01T05:03:02;15.27;;;2.57;;
7657;SDS011;8462;53.156;8.220;2023-02-01T05:05:29;10.93;;;2.53;;
7657;SDS011;8462;53.156;8.220;2023-02-01T05:07:56;7.83;;;2.13;;
7657;SDS011;8462;53.156;8.220;2023-02-01T05:10:23;8.60;;;2.30;;
7657;SDS011;8462;53.156;8.220;2023-02-01T05:12:50;8.43;;;2.50;;
7657;SDS011;8462;53.156;8.220;2023-02-01T05:15:36;9.27;;;2.50;;
7657;SDS011;8462;53.156;8.220;2023-02-01T05:18:03;10.93;;;2.63;;
7657;SDS011;8462;53.156;8.220;2023-02-01T05:20:30;8.73;;;2.67;;
7657;SDS011;8462;53.156;8.220;2023-02-01T05:22:57;14.60;;;2.80;;
7657;SDS011;8462;53.156;8.220;2023-02-01T05:25:24;8.37;;;3.20;;
7657;SDS011;8462;53.156;8.220;2023-02-01T05:27:51;7.87;;;2.67;;
7657;SDS011;8462;53.156;8.220;2023-02-01T05:30:19;8.40;;;2.40;;
7657;SDS011;8462;53.156;8.220;2023-02-01T05:32:50;6.23;;;2.50;;
7657;SDS011;8462;53.156;8.220;2023-02-01T05:35:17;9.73;;;2.80;;
7657;SDS011;8462;53.156;8.220;2023-02-01T05:37:44;12.20;;;2.40;;
7657;SDS011;8462;53.156;8.220;2023-02-01T05:40:12;17.20;;;3.40;;
7657;SDS011;8462;53.156;8.220;2023-02-01T05:42:38;9.53;;;2.27;;
7657;SDS011;8462;53.156;8.220;2023-02-01T05:45:06;8.20;;;1.87;;
7657;SDS011;8462;53.156;8.220;2023-02-01T05:47:34;14.67;;;3.80;;
7657;SDS011;8462;53.156;8.220;2023-02-01T05:50:02;9.47;;;2.87;;
7657;SDS011;8462;53.156;8.220;2023-02-01T05:52:30;10.20;;;2.70;;
7657;SDS011;8462;53.156;8.220;2023-02-01T05:54:57;9.00;;;3.13;;
7657;SDS011;8462;53.156;8.220;2023-02-01T05:57:25;16.37;;;2.73;;
7657;SDS011;8462;53.156;8.220;2023-02-01T05:59:51;22.50;;;3.00;;
7657;SDS011;8462;53.156;8.220;2023-02-01T06:02:18;12.20;;;2.80;;
7657;SDS011;8462;53.156;8.220;2023-02-01T06:04:46;12.07;;;2.47;;
7657;SDS011;8462;53.156;8.220;2023-02-01T06:07:15;8.20;;;2.97;;
7657;SDS011;8462;53.156;8.220;2023-02-01T06:09:45;7.50;;;2.30;;
7657;SDS011;8462;53.156;8.220;2023-02-01T06:12:12;11.23;;;2.97;;
7657;SDS011;8462;53.156;8.220;2023-02-01T06:14:39;10.30;;;2.50;;
7657;SDS011;8462;53.156;8.220;2023-02-01T06:17:08;8.27;;;3.23;;
7657;SDS011;8462;53.156;8.220;2023-02-01T06:19:35;7.37;;;2.20;;
7657;SDS011;8462;53.156;8.220;2023-02-01T06:22:02;7.87;;;2.33;;
7657;SDS011;8462;53.156;8.220;2023-02-01T06:24:32;5.40;;;1.97;;
7657;SDS011;8462;53.156;8.220;2023-02-01T06:26:59;8.47;;;2.00;;
7657;SDS011;8462;53.156;8.220;2023-02-01T06:29:26;6.03;;;2.53;;
7657;SDS011;8462;53.156;8.220;2023-02-01T06:31:53;6.03;;;1.70;;
7657;SDS011;8462;53.156;8.220;2023-02-01T06:34:20;9.93;;;2.50;;
7657;SDS011;8462;53.156;8.220;2023-02-01T06:36:48;8.33;;;2.03;;
7657;SDS011;8462;53.156;8.220;2023-02-01T06:39:14;10.50;;;2.70;;
7657;SDS011;8462;53.156;8.220;2023-02-01T06:41:45;12.43;;;3.67;;
7657;SDS011;8462;53.156;8.220;2023-02-01T06:44:12;13.67;;;3.53;;
7657;SDS011;8462;53.156;8.220;2023-02-01T06:46:39;17.67;;;4.23;;
7657;SDS011;8462;53.156;8.220;2023-02-01T06:49:06;13.97;;;2.53;;
7657;SDS011;8462;53.156;8.220;2023-02-01T06:51:33;11.23;;;4.20;;
7657;SDS011;8462;53.156;8.220;2023-02-01T06:54:00;13.40;;;3.67;;
7657;SDS011;8462;53.156;8.220;2023-02-01T06:56:31;7.07;;;2.07;;
7657;SDS011;8462;53.156;8.220;2023-02-01T06:58:59;11.73;;;3.83;;
7657;SDS011;8462;53.156;8.220;2023-02-01T07:01:29;12.70;;;2.73;;
7657;SDS011;8462;53.156;8.220;2023-02-01T07:03:56;14.53;;;3.43;;
7657;SDS011;8462;53.156;8.220;2023-02-01T07:06:23;14.27;;;3.83;;
7657;SDS011;8462;53.156;8.220;2023-02-01T07:08:50;14.80;;;3.03;;
7657;SDS011;8462;53.156;8.220;2023-02-01T07:11:17;13.83;;;3.00;;
7657;SDS011;8462;53.156;8.220;2023-02-01T07:13:45;18.53;;;2.90;;
7657;SDS011;8462;53.156;8.220;2023-02-01T07:16:13;12.17;;;3.37;;
7657;SDS011;8462;53.156;8.220;2023-02-01T07:18:42;10.40;;;2.90;;
7657;SDS011;8462;53.156;8.220;2023-02-01T07:21:09;11.70;;;1.80;;
7657;SDS011;8462;53.156;8.220;2023-02-01T07:23:36;11.07;;;3.57;;
7657;SDS011;8462;53.156;8.220;2023-02-01T07:26:04;6.03;;;2.30;;
7657;SDS011;8462;53.156;8.220;2023-02-01T07:28:33;15.17;;;2.60;;
7657;SDS011;8462;53.156;8.220;2023-02-01T07:31:02;16.03;;;2.93;;
7657;SDS011;8462;53.156;8.220;2023-02-01T07:33:31;9.30;;;2.60;;
7657;SDS011;8462;53.156;8.220;2023-02-01T07:36:00;12.60;;;2.93;;
7657;SDS011;8462;53.156;8.220;2023-02-01T07:38:27;14.10;;;3.00;;
7657;SDS011;8462;53.156;8.220;2023-02-01T07:40:56;17.33;;;3.67;;
7657;SDS011;8462;53.156;8.220;2023-02-01T07:43:24;18.83;;;3.50;;
7657;SDS011;8462;53.156;8.220;2023-02-01T07:45:52;8.30;;;2.67;;
7657;SDS011;8462;53.156;8.220;2023-02-01T07:48:20;8.27;;;2.73;;
7657;SDS011;8462;53.156;8.220;2023-02-01T07:50:56;9.33;;;2.33;;
7657;SDS011;8462;53.156;8.220;2023-02-01T07:53:24;11.27;;;2.63;;
7657;SDS011;8462;53.156;8.220;2023-02-01T07:55:51;9.87;;;2.60;;
7657;SDS011;8462;53.156;8.220;2023-02-01T07:58:18;7.97;;;2.47;;
7657;SDS011;8462;53.156;8.220;2023-02-01T08:00:45;17.07;;;3.23;;
7657;SDS011;8462;53.156;8.220;2023-02-01T08:03:29;13.07;;;3.00;;
7657;SDS011;8462;53.156;8.220;2023-02-01T08:05:58;11.80;;;2.67;;
7657;SDS011;8462;53.156;8.220;2023-02-01T08:08:25;10.53;;;2.77;;
7657;SDS011;8462;53.156;8.220;2023-02-01T08:10:56;13.67;;;2.30;;
7657;SDS011;8462;53.156;8.220;2023-02-01T08:13:23;10.17;;;3.07;;
7657;SDS011;8462;53.156;8.220;2023-02-01T08:15:50;12.17;;;3.10;;
7657;SDS011;8462;53.156;8.220;2023-02-01T08:18:17;14.73;;;3.53;;
7657;SDS011;8462;53.156;8.220;2023-02-01T08:20:45;11.07;;;3.47;;
7657;SDS011;8462;53.156;8.220;2023-02-01T08:23:16;14.67;;;3.00;;
7657;SDS011;8462;53.156;8.220;2023-02-01T08:25:43;10.07;;;2.60;;
7657;SDS011;8462;53.156;8.220;2023-02-01T08:28:10;13.20;;;3.37;;
7657;SDS011;8462;53.156;8.220;2023-02-01T08:30:37;12.67;;;3.40;;
7657;SDS011;8462;53.156;8.220;2023-02-01T08:33:04;13.07;;;3.83;;
7657;SDS011;8462;53.156;8.220;2023-02-01T08:35:32;12.70;;;3.43;;
7657;SDS011;8462;53.156;8.220;2023-02-01T08:38:01;13.70;;;3.43;;
7657;SDS011;8462;53.156;8.220;2023-02-01T08:40:29;15.17;;;3.70;;
7657;SDS011;8462;53.156;8.220;2023-02-01T08:42:56;9.73;;;2.50;;
7657;SDS011;8462;53.156;8.220;2023-02-01T08:45:31;14.17;;;3.27;;
7657;SDS011;8462;53.156;8.220;2023-02-01T08:47:59;16.40;;;2.67;;
7657;SDS011;8462;53.156;8.220;2023-02-01T08:50:26;12.57;;;2.57;;
7657;SDS011;8462;53.156;8.220;2023-02-01T08:52:53;8.00;;;3.20;;
7657;SDS011;8462;53.156;8.220;2023-02-01T08:55:22;14.03;;;2.63;;
7657;SDS011;8462;53.156;8.220;2023-02-01T08:57:50;12.00;;;3.67;;
7657;SDS011;8462;53.156;8.220;2023-02-01T09:00:17;12.37;;;3.10;;
7657;SDS011;8462;53.156;8.220;2023-02-01T09:02:44;18.83;;;2.97;;
7657;SDS011;8462;53.156;8.220;2023-02-01T09:05:11;13.13;;;2.63;;
7657;SDS011;8462;53.156;8.220;2023-02-01T09:07:39;18.57;;;3.37;;
7657;SDS011;8462;53.156;8.220;2023-02-01T09:10:06;18.00;;;4.47;;
7657;SDS011;8462;53.156;8.220;2023-02-01T09:12:35;8.90;;;2.90;;
7657;SDS011;8462;53.156;8.220;2023-02-01T09:15:05;14.30;;;3.50;;
7657;SDS011;8462;53.156;8.220;2023-02-01T09:17:33;12.90;;;2.80;;
7657;SDS011;8462;53.156;8.220;2023-02-01T09:20:00;13.83;;;4.63;;
7657;SDS011;8462;53.156;8.220;2023-02-01T09:22:27;14.63;;;3.63;;
7657;SDS011;8462;53.156;8.220;2023-02-01T09:24:54;15.00;;;2.63;;
7657;SDS011;8462;53.156;8.220;2023-02-01T09:27:21;10.37;;;2.57;;
7657;SDS011;8462;53.156;8.220;2023-02-01T09:29:48;6.67;;;2.50;;
7657;SDS011;8462;53.156;8.220;2023-02-01T09:32:19;9.43;;;2.80;;
7657;SDS011;8462;53.156;8.220;2023-02-01T09:34:46;11.83;;;2.70;;
7657;SDS011;8462;53.156;8.220;2023-02-01T09:37:14;14.13;;;3.43;;
7657;SDS011;8462;53.156;8.220;2023-02-01T09:39:42;17.63;;;3.37;;
7657;SDS011;8462;53.156;8.220;2023-02-01T09:42:16;8.17;;;1.87;;
7657;SDS011;8462;53.156;8.220;2023-02-01T09:44:58;10.83;;;2.90;;
7657;SDS011;8462;53.156;8.220;2023-02-01T09:47:35;14.63;;;4.30;;
7657;SDS011;8462;53.156;8.220;2023-02-01T09:50:10;13.77;;;2.90;;
7657;SDS011;8462;53.156;8.220;2023-02-01T09:52:44;10.70;;;2.60;;
7657;SDS011;8462;53.156;8.220;2023-02-01T09:55:15;10.20;;;2.63;;
7657;SDS011;8462;53.156;8.220;2023-02-01T09:57:49;10.67;;;3.40;;
7657;SDS011;8462;53.156;8.220;2023-02-01T10:00:22;9.83;;;3.90;;
7657;SDS011;8462;53.156;8.220;2023-02-01T10:02:54;13.03;;;3.10;;
7657;SDS011;8462;53.156;8.220;2023-02-01T10:05:27;15.73;;;3.13;;
7657;SDS011;8462;53.156;8.220;2023-02-01T10:08:09;9.20;;;2.80;;
7657;SDS011;8462;53.156;8.220;2023-02-01T10:10:43;12.57;;;3.20;;
7657;SDS011;8462;53.156;8.220;2023-02-01T10:16:09;8.13;;;2.40;;
7657;SDS011;8462;53.156;8.220;2023-02-01T10:18:56;12.23;;;2.73;;
7657;SDS011;8462;53.156;8.220;2023-02-01T10:24:22;9.33;;;3.40;;
7657;SDS011;8462;53.156;8.220;2023-02-01T10:26:59;13.57;;;3.40;;
7657;SDS011;8462;53.156;8.220;2023-02-01T10:29:34;19.70;;;3.87;;
7657;SDS011;8462;53.156;8.220;2023-02-01T10:32:08;12.63;;;3.60;;
7657;SDS011;8462;53.156;8.220;2023-02-01T10:34:41;17.13;;;4.33;;
7657;SDS011;8462;53.156;8.220;2023-02-01T10:37:15;14.37;;;3.77;;
7657;SDS011;8462;53.156;8.220;2023-02-01T10:39:52;11.83;;;2.97;;
7657;SDS011;8462;53.156;8.220;2023-02-01T10:42:21;13.60;;;3.43;;
7657;SDS011;8462;53.156;8.220;2023-02-01T10:44:50;12.53;;;2.70;;
7657;SDS011;8462;53.156;8.220;2023-02-01T10:47:18;8.47;;;2.20;;
7657;SDS011;8462;53.156;8.220;2023-02-01T10:49:49;10.33;;;2.53;;
7657;SDS011;8462;53.156;8.220;2023-02-01T10:52:23;8.50;;;2.47;;
7657;SDS011;8462;53.156;8.220;2023-02-01T11:00:34;8.17;;;2.70;;
7657;SDS011;8462;53.156;8.220;2023-02-01T11:06:01;7.00;;;2.17;;
7657;SDS011;8462;53.156;8.220;2023-02-01T11:08:29;13.23;;;3.07;;
7657;SDS011;8462;53.156;8.220;2023-02-01T11:10:57;10.87;;;3.13;;
7657;SDS011;8462;53.156;8.220;2023-02-01T11:13:30;6.30;;;1.60;;
7657;SDS011;8462;53.156;8.220;2023-02-01T11:16:02;7.77;;;1.83;;
7657;SDS011;8462;53.156;8.220;2023-02-01T11:18:35;6.97;;;2.50;;
7657;SDS011;8462;53.156;8.220;2023-02-01T11:21:05;6.87;;;1.47;;
7657;SDS011;8462;53.156;8.220;2023-02-01T11:23:35;6.27;;;2.40;;
7657;SDS011;8462;53.156;8.220;2023-02-01T11:26:09;10.90;;;2.40;;
7657;SDS011;8462;53.156;8.220;2023-02-01T11:28:39;4.93;;;1.87;;
7657;SDS011;8462;53.156;8.220;2023-02-01T11:31:11;4.33;;;1.77;;
7657;SDS011;8462;53.156;8.220;2023-02-01T11:33:42;8.20;;;1.80;;
7657;SDS011;8462;53.156;8.220;2023-02-01T11:36:17;3.70;;;1.60;;
7657;SDS011;8462;53.156;8.220;2023-02-01T11:38:51;8.70;;;2.37;;
7657;SDS011;8462;53.156;8.220;2023-02-01T11:41:25;3.90;;;1.90;;
7657;SDS011;8462;53.156;8.220;2023-02-01T11:43:54;6.17;;;2.23;;
7657;SDS011;8462;53.156;8.220;2023-02-01T11:46:25;10.73;;;2.63;;
7657;SDS011;8462;53.156;8.220;2023-02-01T11:48:55;11.37;;;3.27;;
7657;SDS011;8462;53.156;8.220;2023-02-01T11:51:44;9.87;;;2.70;;
7657;SDS011;8462;53.156;8.220;2023-02-01T11:57:19;4.87;;;1.77;;
7657;SDS011;8462;53.156;8.220;2023-02-01T12:05:58;0.10;;;0.10;;
7657;SDS011;8462;53.156;8.220;2023-02-01T12:08:37;0.10;;;0.10;;
7657;SDS011;8462;53.156;8.220;2023-02-01T12:11:26;0.20;;;0.20;;
7657;SDS011;8462;53.156;8.220;2023-02-01T12:14:03;0.10;;;0.10;;
7657;SDS011;8462;53.156;8.220;2023-02-01T12:16:38;0.13;;;0.13;;
7657;SDS011;8462;53.156;8.220;2023-02-01T12:19:16;0.10;;;0.10;;
7657;SDS011;8462;53.156;8.220;2023-02-01T12:22:04;0.10;;;0.10;;
7657;SDS011;8462;53.156;8.220;2023-02-01T12:24:50;0.20;;;0.20;;
7657;SDS011;8462;53.156;8.220;2023-02-01T12:27:49;0.20;;;0.20;;
7657;SDS011;8462;53.156;8.220;2023-02-01T12:30:56;0.20;;;0.20;;
7657;SDS011;8462;53.156;8.220;2023-02-01T12:33:45;0.10;;;0.10;;
7657;SDS011;8462;53.156;8.220;2023-02-01T12:36:23;0.13;;;0.13;;
7657;SDS011;8462;53.156;8.220;2023-02-01T12:38:58;0.20;;;0.20;;
7657;SDS011;8462;53.156;8.220;2023-02-01T12:41:45;0.10;;;0.10;;
7657;SDS011;8462;53.156;8.220;2023-02-01T12:44:21;0.20;;;0.20;;
7657;SDS011;8462;53.156;8.220;2023-02-01T12:46:56;0.10;;;0.10;;
7657;SDS011;8462;53.156;8.220;2023-02-01T12:49:28;0.20;;;0.20;;
7657;SDS011;8462;53.156;8.220;2023-02-01T12:52:04;0.20;;;0.20;;
7657;SDS011;8462;53.156;8.220;2023-02-01T12:54:45;0.20;;;0.20;;
7657;SDS011;8462;53.156;8.220;2023-02-01T12:57:17;0.20;;;0.20;;
7657;SDS011;8462;53.156;8.220;2023-02-01T12:59:51;0.20;;;0.20;;
7657;SDS011;8462;53.156;8.220;2023-02-01T13:02:24;0.10;;;0.10;;
7657;SDS011;8462;53.156;8.220;2023-02-01T13:05:00;0.10;;;0.10;;
7657;SDS011;8462;53.156;8.220;2023-02-01T13:07:34;0.10;;;0.10;;
7657;SDS011;8462;53.156;8.220;2023-02-01T13:10:11;0.20;;;0.20;;
7657;SDS011;8462;53.156;8.220;2023-02-01T13:12:44;0.20;;;0.20;;
7657;SDS011;8462;53.156;8.220;2023-02-01T13:15:17;0.10;;;0.10;;
7657;SDS011;8462;53.156;8.220;2023-02-01T13:17:49;0.20;;;0.20;;
7657;SDS011;8462;53.156;8.220;2023-02-01T13:20:21;0.10;;;0.10;;
7657;SDS011;8462;53.156;8.220;2023-02-01T13:22:53;0.10;;;0.10;;
7657;SDS011;8462;53.156;8.220;2023-02-01T13:25:27;0.20;;;0.20;;
7657;SDS011;8462;53.156;8.220;2023-02-01T13:28:01;0.20;;;0.20;;
7657;SDS011;8462;53.156;8.220;2023-02-01T13:30:36;0.20;;;0.20;;
7657;SDS011;8462;53.156;8.220;2023-02-01T13:36:12;0.20;;;0.20;;
7657;SDS011;8462;53.156;8.220;2023-02-01T13:42:03;0.20;;;0.20;;
7657;SDS011;8462;53.156;8.220;2023-02-01T13:44:34;0.20;;;0.20;;
7657;SDS011;8462;53.156;8.220;2023-02-01T13:47:09;0.20;;;0.20;;
7657;SDS011;8462;53.156;8.220;2023-02-01T13:49:42;0.13;;;0.13;;
7657;SDS011;8462;53.156;8.220;2023-02-01T13:52:17;0.17;;;0.17;;
7657;SDS011;8462;53.156;8.220;2023-02-01T13:55:00;0.10;;;0.10;;
7657;SDS011;8462;53.156;8.220;2023-02-01T13:57:35;0.10;;;0.10;;
7657;SDS011;8462;53.156;8.220;2023-02-01T14:00:22;0.10;;;0.10;;
7657;SDS011;8462;53.156;8.220;2023-02-01T14:03:02;0.20;;;0.20;;
7657;SDS011;8462;53.156;8.220;2023-02-01T14:05:59;0.20;;;0.20;;
7657;SDS011;8462;53.156;8.220;2023-02-01T14:08:37;0.10;;;0.10;;
7657;SDS011;8462;53.156;8.220;2023-02-01T14:11:06;0.20;;;0.20;;
7657;SDS011;8462;53.156;8.220;2023-02-01T14:23:21;0.10;;;0.10;;
7657;SDS011;8462;53.156;8.220;2023-02-01T14:26:02;0.10;;;0.10;;
7657;SDS011;8462;53.156;8.220;2023-02-01T14:28:40;0.20;;;0.20;;
7657;SDS011;8462;53.156;8.220;2023-02-01T14:31:30;0.10;;;0.10;;
7657;SDS011;8462;53.156;8.220;2023-02-01T14:36:57;0.20;;;0.20;;
7657;SDS011;8462;53.156;8.220;2023-02-01T14:39:29;0.10;;;0.10;;
7657;SDS011;8462;53.156;8.220;2023-02-01T14:42:01;0.20;;;0.20;;
7657;SDS011;8462;53.156;8.220;2023-02-01T14:44:34;0.20;;;0.20;;
7657;SDS011;8462;53.156;8.220;2023-02-01T14:47:10;0.20;;;0.20;;
7657;SDS011;8462;53.156;8.220;2023-02-01T14:49:58;0.20;;;0.20;;
7657;SDS011;8462;53.156;8.220;2023-02-01T14:52:45;0.20;;;0.20;;
7657;SDS011;8462;53.156;8.220;2023-02-01T14:55:16;0.20;;;0.20;;
7657;SDS011;8462;53.156;8.220;2023-02-01T14:57:48;16.23;;;2.30;;
7657;SDS011;8462;53.156;8.220;2023-02-01T15:00:20;4.73;;;1.60;;
7657;SDS011;8462;53.156;8.220;2023-02-01T15:02:49;10.80;;;1.33;;
7657;SDS011;8462;53.156;8.220;2023-02-01T15:05:27;11.10;;;1.80;;
7657;SDS011;8462;53.156;8.220;2023-02-01T15:07:57;21.80;;;2.37;;
7657;SDS011;8462;53.156;8.220;2023-02-01T15:10:29;7.47;;;1.90;;
7657;SDS011;8462;53.156;8.220;2023-02-01T15:12:59;6.50;;;2.73;;
7657;SDS011;8462;53.156;8.220;2023-02-01T15:15:26;14.53;;;3.33;;
7657;SDS011;8462;53.156;8.220;2023-02-01T15:17:54;13.63;;;3.53;;
7657;SDS011;8462;53.156;8.220;2023-02-01T15:20:23;9.57;;;2.27;;
7657;SDS011;8462;53.156;8.220;2023-02-01T15:22:53;11.03;;;2.90;;
7657;SDS011;8462;53.156;8.220;2023-02-01T15:25:23;20.73;;;4.30;;
7657;SDS011;8462;53.156;8.220;2023-02-01T15:27:51;16.30;;;4.23;;
7657;SDS011;8462;53.156;8.220;2023-02-01T15:30:19;8.57;;;2.67;;
7657;SDS011;8462;53.156;8.220;2023-02-01T15:32:48;11.90;;;2.93;;
7657;SDS011;8462;53.156;8.220;2023-02-01T15:35:32;10.67;;;3.20;;
7657;SDS011;8462;53.156;8.220;2023-02-01T15:38:30;16.83;;;2.80;;
7657;SDS011;8462;53.156;8.220;2023-02-01T15:41:04;14.80;;;3.80;;
7657;SDS011;8462;53.156;8.220;2023-02-01T15:43:37;7.63;;;2.80;;
7657;SDS011;8462;53.156;8.220;2023-02-01T15:46:07;12.70;;;3.20;;
7657;SDS011;8462;53.156;8.220;2023-02-01T15:48:38;8.80;;;2.83;;
7657;SDS011;8462;53.156;8.220;2023-02-01T15:51:11;14.37;;;2.63;;
7657;SDS011;8462;53.156;8.220;2023-02-01T15:53:48;8.43;;;2.27;;
7657;SDS011;8462;53.156;8.220;2023-02-01T15:56:23;12.23;;;1.87;;
7657;SDS011;8462;53.156;8.220;2023-02-01T15:58:53;7.10;;;2.13;;
7657;SDS011;8462;53.156;8.220;2023-02-01T16:01:23;9.07;;;1.87;;
7657;SDS011;8462;53.156;8.220;2023-02-01T16:04:01;7.73;;;1.63;;
7657;SDS011;8462;53.156;8.220;2023-02-01T16:06:32;9.37;;;1.80;;
7657;SDS011;8462;53.156;8.220;2023-02-01T16:09:08;9.27;;;1.93;;
7657;SDS011;8462;53.156;8.220;2023-02-01T16:11:41;4.57;;;1.97;;
7657;SDS011;8462;53.156;8.220;2023-02-01T16:14:15;7.83;;;2.73;;
7657;SDS011;8462;53.156;8.220;2023-02-01T16:16:42;8.63;;;2.03;;
7657;SDS011;8462;53.156;8.220;2023-02-01T16:19:08;6.40;;;2.33;;
7657;SDS011;8462;53.156;8.220;2023-02-01T16:21:35;5.80;;;2.40;;
7657;SDS011;8462;53.156;8.220;2023-02-01T16:24:04;7.67;;;2.27;;
7657;SDS011;8462;53.156;8.220;2023-02-01T16:26:31;8.33;;;3.00;;